Time;durP1;ratioP1;P1;durP2;ratioP2;P2;SDS_P1;SDS_P2;PMS_P1;PMS_P2;Temp;Humidity;BMP_temperature;BMP_pressure;BME280_temperature;BME280_humidity;BME280_pressure;Samples;Min_cycle;Max_cycle;Signal;HPM_P1;HPM_P2
2023/10/27 00:07:31;;;;;;;0.68;0.25;;;10.10;99.90;;;;;;25345758;23;20060;-52
2023/10/27 00:17:33;;;;;;;183.60;4.05;;;10.20;99.90;;;;;;25345053;23;20010;-49
2023/10/27 00:27:34;;;;;;;93.38;2.03;;;10.20;99.90;;;;;;25344870;23;20033;-59
2023/10/27 00:37:37;;;;;;;362.58;8.35;;;10.40;99.90;;;;;;25318358;23;20073;-52
2023/10/27 00:47:39;;;;;;;181.98;4.07;;;10.50;99.90;;;;;;25343957;23;20013;-51
2023/10/27 00:57:42;;;;;;;415.33;10.13;;;10.70;99.90;;;;;;25343249;23;20009;-49
2023/10/27 01:07:43;;;;;;;388.27;9.93;;;10.80;99.90;;;;;;25343103;23;20069;-58
2023/10/27 01:17:45;;;;;;;260.15;6.18;;;10.90;99.90;;;;;;25344403;23;20326;-50
2023/10/27 01:27:47;;;;;;;198.93;5.07;;;10.90;99.90;;;;;;25315494;23;20018;-49
2023/10/27 01:37:49;;;;;;;149.60;3.50;;;10.90;99.90;;;;;;25342063;23;20013;-59
2023/10/27 01:47:51;;;;;;;152.10;3.75;;;11.00;99.90;;;;;;25341884;23;20010;-49
2023/10/27 01:57:53;;;;;;;2.85;0.00;;;11.10;99.90;;;;;;25339999;23;20021;-58
2023/10/27 02:07:55;;;;;;;98.22;2.03;;;11.10;99.90;;;;;;25290719;23;20405;-58
2023/10/27 02:17:56;;;;;;;3.72;0.00;;;11.10;99.90;;;;;;25342188;23;20042;-51
2023/10/27 02:27:58;;;;;;;6.82;0.13;;;11.20;99.90;;;;;;25340414;23;20056;-50
2023/10/27 02:38:04;;;;;;;296.40;7.18;;;11.20;99.90;;;;;;25342943;23;20006;-59
2023/10/27 02:48:06;;;;;;;790.60;20.70;;;11.30;99.90;;;;;;25389171;23;20516;-58
2023/10/27 02:58:07;;;;;;;708.45;17.05;;;11.30;99.90;;;;;;25348575;23;20427;-51
2023/10/27 03:08:09;;;;;;;508.60;12.77;;;11.30;99.90;;;;;;25347955;23;20378;-58
2023/10/27 03:18:11;;;;;;;301.08;7.32;;;11.30;99.90;;;;;;25322112;23;20430;-58
2023/10/27 03:28:13;;;;;;;372.23;12.25;;;11.30;99.90;;;;;;25347036;23;20006;-53
2023/10/27 03:38:17;;;;;;;296.08;7.88;;;11.40;99.90;;;;;;25346051;23;20056;-51
2023/10/27 03:48:19;;;;;;;385.88;18.17;;;11.40;99.90;;;;;;25345291;23;20394;-52
2023/10/27 03:58:21;;;;;;;590.47;24.23;;;11.30;99.90;;;;;;25319239;23;20006;-59
2023/10/27 04:08:23;;;;;;;148.88;9.73;;;11.30;99.90;;;;;;25344763;23;20069;-59
2023/10/27 04:18:24;;;;;;;781.10;30.58;;;11.20;99.90;;;;;;25318398;23;20520;-60
2023/10/27 04:28:27;;;;;;;91.32;8.88;;;11.00;99.90;;;;;;25344746;23;20064;-59
2023/10/27 04:38:29;;;;;;;664.08;31.25;;;10.90;99.90;;;;;;25343814;23;20505;-51
2023/10/27 04:48:30;;;;;;;7.90;3.60;;;10.80;99.90;;;;;;25343842;23;20006;-59
2023/10/27 04:58:32;;;;;;;4.00;1.50;;;10.70;99.90;;;;;;25343336;23;20382;-58
2023/10/27 05:08:34;;;;;;;395.30;9.43;;;10.50;99.90;;;;;;25342410;23;20017;-59
2023/10/27 05:18:36;;;;;;;86.95;2.83;;;10.60;99.90;;;;;;25342449;23;20459;-52
2023/10/27 05:28:38;;;;;;;108.18;3.30;;;10.60;99.90;;;;;;25341751;23;20006;-50
2023/10/27 05:38:39;;;;;;;58.50;3.55;;;10.50;99.90;;;;;;25341559;23;20009;-59
2023/10/27 05:48:41;;;;;;;1.67;0.90;;;10.30;99.90;;;;;;25341524;23;20001;-49
2023/10/27 05:58:43;;;;;;;0.25;0.10;;;9.90;99.90;;;;;;25340262;23;20017;-52
2023/10/27 06:08:45;;;;;;;974.80;26.95;;;9.60;99.90;;;;;;25340536;23;20025;-53
2023/10/27 06:18:47;;;;;;;694.88;26.13;;;9.60;99.90;;;;;;25339639;23;20006;-52
2023/10/27 06:28:48;;;;;;;9.05;6.22;;;10.00;99.90;;;;;;25340179;23;20009;-52
2023/10/27 06:38:50;;;;;;;2.67;1.52;;;9.90;99.90;;;;;;25313826;23;20044;-61
2023/10/27 06:48:52;;;;;;;0.22;0.10;;;9.40;99.90;;;;;;25314021;23;20010;-53
2023/10/27 06:58:58;;;;;;;485.10;18.83;;;9.00;99.90;;;;;;25312093;23;20383;-60
2023/10/27 07:08:59;;;;;;;334.02;15.57;;;9.10;99.90;;;;;;25340484;23;20009;-60
2023/10/27 07:19:01;;;;;;;99.00;8.82;;;9.50;99.90;;;;;;25337555;23;20010;-51
2023/10/27 07:29:03;;;;;;;176.68;14.80;;;9.70;99.90;;;;;;25345026;23;20354;-60
2023/10/27 07:39:05;;;;;;;46.83;8.38;;;9.80;99.90;;;;;;25346258;23;20001;-61
2023/10/27 07:49:06;;;;;;;108.90;10.93;;;10.30;99.90;;;;;;25346175;23;20006;-55
2023/10/27 07:59:08;;;;;;;80.57;5.78;;;10.20;99.90;;;;;;25345115;23;20006;-52
2023/10/27 08:09:10;;;;;;;32.45;5.22;;;10.30;99.90;;;;;;25345254;23;20005;-55
2023/10/27 08:19:12;;;;;;;7.30;5.93;;;10.30;99.90;;;;;;25344995;23;20338;-61
2023/10/27 08:29:13;;;;;;;6.70;5.43;;;10.40;99.90;;;;;;25344354;23;20390;-55
2023/10/27 08:39:15;;;;;;;5.97;4.10;;;10.50;99.90;;;;;;25343404;23;20010;-57
2023/10/27 08:49:17;;;;;;;6.00;4.03;;;11.20;99.90;;;;;;25343759;23;20038;-55
2023/10/27 08:59:19;;;;;;;2.63;1.80;;;11.50;99.90;;;;;;25342778;23;20060;-56
2023/10/27 09:09:22;;;;;;;0.95;0.82;;;11.80;99.90;;;;;;25341698;23;20013;-54
2023/10/27 09:19:25;;;;;;;1.85;0.70;;;12.20;99.90;;;;;;25342037;23;20333;-62
2023/10/27 09:29:27;;;;;;;0.38;0.30;;;12.70;99.90;;;;;;25341784;23;20005;-55
2023/10/27 09:39:30;;;;;;;1.15;0.20;;;13.60;99.90;;;;;;25341069;23;20069;-62
2023/10/27 09:49:35;;;;;;;4.72;0.20;;;15.70;99.90;;;;;;25340800;23;20005;-56
2023/10/27 09:59:38;;;;;;;0.28;0.20;;;16.40;99.90;;;;;;25340582;23;20009;-64
2023/10/27 10:09:41;;;;;;;0.50;0.22;;;15.20;99.90;;;;;;25340515;23;20005;-62
2023/10/27 10:19:50;;;;;;;0.60;0.22;;;15.10;99.90;;;;;;25340330;23;20010;-63
2023/10/27 10:30:20;;;;;;;0.10;0.10;;;15.60;99.90;;;;;;25380420;23;20334;-64
2023/10/27 10:40:24;;;;;;;0.28;0.28;;;16.30;99.90;;;;;;25379843;23;20377;-62
2023/10/27 10:50:29;;;;;;;1.45;0.20;;;17.20;99.90;;;;;;25339325;23;20002;-60
2023/10/27 11:00:35;;;;;;;0.10;0.10;;;17.70;99.90;;;;;;25341875;23;20076;-60
2023/10/27 11:10:37;;;;;;;1.27;1.17;;;18.40;99.90;;;;;;25386676;23;20012;-55
2023/10/27 11:20:39;;;;;;;0.57;0.47;;;18.00;99.90;;;;;;25345801;23;20501;-54
2023/10/27 11:30:40;;;;;;;2.30;2.10;;;17.10;99.90;;;;;;25345044;23;20006;-63
2023/10/27 11:40:42;;;;;;;2.70;2.50;;;17.20;99.90;;;;;;25344893;23;20006;-62
2023/10/27 11:50:47;;;;;;;4.60;4.20;;;17.00;99.90;;;;;;25344290;23;20002;-62
2023/10/27 12:00:48;;;;;;;2.30;2.10;;;16.40;99.90;;;;;;25344347;23;20005;-62
2023/10/27 12:10:52;;;;;;;2.47;1.80;;;16.00;99.90;;;;;;25343649;23;20077;-62
2023/10/27 12:20:54;;;;;;;10.18;4.00;;;16.20;99.90;;;;;;25343704;23;20010;-62
2023/10/27 12:30:58;;;;;;;3.05;2.70;;;15.70;99.90;;;;;;25317534;23;20010;-63
2023/10/27 12:41:00;;;;;;;1.00;0.80;;;16.00;99.90;;;;;;25342530;23;20508;-63
2023/10/27 12:51:02;;;;;;;1.52;0.90;;;16.40;99.90;;;;;;25342312;23;20395;-54
2023/10/27 13:01:07;;;;;;;1.52;1.20;;;16.90;99.90;;;;;;25219016;23;20434;-63
2023/10/27 13:11:09;;;;;;;3.53;3.22;;;17.10;99.90;;;;;;25219900;23;20006;-63
2023/10/27 13:21:15;;;;;;;0.52;0.20;;;16.60;99.90;;;;;;25220013;23;20017;-63
2023/10/27 13:31:17;;;;;;;0.70;0.10;;;16.00;99.90;;;;;;25259946;23;20374;-63
2023/10/27 13:41:18;;;;;;;0.10;0.00;;;15.20;99.90;;;;;;25218786;23;20030;-61
2023/10/27 13:51:20;;;;;;;0.17;0.10;;;14.70;99.40;;;;;;25218515;23;20006;-61
2023/10/27 14:01:23;;;;;;;0.00;0.00;;;14.20;99.90;;;;;;25319569;23;20009;-62
2023/10/27 14:11:25;;;;;;;0.00;0.00;;;13.70;99.90;;;;;;25338774;23;20353;-55
2023/10/27 14:21:26;;;;;;;0.10;0.10;;;13.50;99.90;;;;;;25338711;23;20006;-60
2023/10/27 14:31:29;;;;;;;0.20;0.15;;;13.10;99.90;;;;;;25337936;23;20002;-61
2023/10/27 14:41:31;;;;;;;0.13;0.10;;;12.70;99.90;;;;;;25337740;23;20006;-61
2023/10/27 14:51:34;;;;;;;1.50;0.20;;;12.30;99.90;;;;;;25339562;23;20053;-60
2023/10/27 15:01:36;;;;;;;1.55;0.10;;;12.20;99.90;;;;;;25337583;23;20018;-55
2023/10/27 15:11:37;;;;;;;0.20;0.20;;;12.10;99.90;;;;;;25338030;23;19998;-60
2023/10/27 15:21:39;;;;;;;1.40;0.10;;;12.20;99.90;;;;;;25336974;23;20022;-60
2023/10/27 15:31:41;;;;;;;0.80;0.20;;;11.80;99.90;;;;;;25337814;23;20029;-60
2023/10/27 15:41:42;;;;;;;0.00;0.00;;;11.80;99.90;;;;;;25337550;23;20065;-59
2023/10/27 15:51:44;;;;;;;0.20;0.10;;;11.40;98.80;;;;;;25343546;23;20006;-59
2023/10/27 16:01:46;;;;;;;0.10;0.08;;;11.50;98.70;;;;;;25344267;23;20307;-55
2023/10/27 16:11:48;;;;;;;0.10;0.00;;;11.20;95.10;;;;;;25344482;23;20334;-59
2023/10/27 16:21:51;;;;;;;0.00;0.00;;;11.00;96.50;;;;;;25344402;23;19998;-59
2023/10/27 16:31:54;;;;;;;0.10;0.00;;;10.60;96.80;;;;;;25343735;23;20473;-58
2023/10/27 16:41:56;;;;;;;0.20;0.00;;;10.40;97.30;;;;;;25343371;23;20002;-54
2023/10/27 16:51:57;;;;;;;0.55;0.00;;;10.30;96.20;;;;;;25343247;23;20002;-54
2023/10/27 17:01:59;;;;;;;0.20;0.10;;;10.10;99.90;;;;;;25342940;23;20330;-53
2023/10/27 17:12:01;;;;;;;0.17;0.10;;;9.80;99.90;;;;;;25342258;23;19998;-59
2023/10/27 17:22:03;;;;;;;0.55;0.10;;;9.90;99.80;;;;;;25342259;23;20072;-58
2023/10/27 17:32:06;;;;;;;0.15;0.05;;;10.10;99.00;;;;;;25341801;23;20010;-55
2023/10/27 17:42:08;;;;;;;0.10;0.00;;;9.70;99.90;;;;;;25341392;23;20030;-59
2023/10/27 17:52:10;;;;;;;0.30;0.10;;;9.40;99.80;;;;;;25341516;23;20010;-53
2023/10/27 18:02:11;;;;;;;0.40;0.10;;;9.70;99.90;;;;;;25339739;23;20018;-58
2023/10/27 18:12:13;;;;;;;0.20;0.13;;;9.60;99.90;;;;;;25339659;23;20018;-58
2023/10/27 18:22:15;;;;;;;0.85;0.40;;;9.30;99.90;;;;;;25340180;23;20009;-58
2023/10/27 18:32:35;;;;;;;2.45;0.95;;;9.40;99.90;;;;;;25339144;23;20029;-59
2023/10/27 18:42:37;;;;;;;3.22;2.15;;;9.10;99.90;;;;;;25378967;23;20009;-58
2023/10/27 18:52:40;;;;;;;1.23;1.05;;;8.80;99.90;;;;;;25338611;23;20017;-54
2023/10/27 19:02:44;;;;;;;2.33;0.60;;;9.70;99.90;;;;;;25335946;23;20052;-53
2023/10/27 19:12:46;;;;;;;1.20;0.35;;;10.00;99.90;;;;;;25339938;23;20010;-58
2023/10/27 19:22:48;;;;;;;11.32;4.75;;;9.80;99.90;;;;;;25344068;23;20080;-53
2023/10/27 19:32:50;;;;;;;12.50;8.10;;;9.60;99.90;;;;;;25347657;23;20017;-55
2023/10/27 19:42:52;;;;;;;14.98;9.73;;;9.10;99.90;;;;;;25320677;23;20057;-55
2023/10/27 19:52:55;;;;;;;5.03;3.75;;;8.30;99.90;;;;;;25346510;23;20006;-53
2023/10/27 20:02:57;;;;;;;2.53;0.80;;;7.60;99.90;;;;;;25345693;23;20013;-54
2023/10/27 20:12:59;;;;;;;6.50;4.32;;;7.00;99.90;;;;;;25345558;23;20006;-58
2023/10/27 20:23:01;;;;;;;20.63;11.60;;;6.70;99.90;;;;;;25344957;23;20381;-54
2023/10/27 20:33:03;;;;;;;25.98;14.45;;;6.80;99.90;;;;;;25344310;23;20010;-57
2023/10/27 20:43:06;;;;;;;19.23;12.82;;;7.10;99.90;;;;;;25344399;23;20021;-54
2023/10/27 20:53:08;;;;;;;21.77;14.15;;;7.20;99.90;;;;;;25342817;23;20009;-57
2023/10/27 21:03:09;;;;;;;17.52;11.55;;;7.20;99.90;;;;;;25384287;23;20048;-58
2023/10/27 21:13:13;;;;;;;7.18;4.63;;;7.10;99.90;;;;;;25342701;23;20009;-52
2023/10/27 21:23:17;;;;;;;2.55;1.60;;;7.20;99.90;;;;;;25342563;23;20014;-57
2023/10/27 21:33:19;;;;;;;1.88;0.40;;;7.00;99.90;;;;;;25342451;23;20002;-59
2023/10/27 21:43:21;;;;;;;3.35;0.40;;;7.60;99.90;;;;;;25341947;23;20016;-54
2023/10/27 21:53:22;;;;;;;2.83;0.25;;;8.10;99.90;;;;;;25341635;23;20453;-58
2023/10/27 22:03:25;;;;;;;4.55;1.90;;;8.50;99.90;;;;;;25381921;23;20252;-54
2023/10/27 22:13:27;;;;;;;4.25;0.52;;;8.30;99.90;;;;;;25341058;23;20061;-57
2023/10/27 22:23:31;;;;;;;1.15;0.20;;;7.70;99.90;;;;;;25314953;23;20030;-55
2023/10/27 22:33:33;;;;;;;3.65;0.40;;;7.40;99.90;;;;;;25341266;23;20002;-58
2023/10/27 22:43:35;;;;;;;7.40;1.30;;;7.80;99.90;;;;;;25340759;23;20521;-54
2023/10/27 22:53:37;;;;;;;3.33;1.50;;;7.80;99.90;;;;;;25342372;23;20014;-58
2023/10/27 23:03:39;;;;;;;6.18;1.30;;;7.50;99.90;;;;;;25389117;23;20014;-53
2023/10/27 23:13:43;;;;;;;9.52;4.07;;;6.90;99.90;;;;;;25348031;23;20002;-55
2023/10/27 23:23:47;;;;;;;8.05;2.45;;;6.60;99.90;;;;;;25347628;23;20017;-58
2023/10/27 23:33:48;;;;;;;2.53;0.22;;;6.50;99.90;;;;;;25347462;23;20010;-53
2023/10/27 23:43:51;;;;;;;0.90;0.20;;;6.60;99.90;;;;;;25346655;23;20111;-55
2023/10/27 23:53:54;;;;;;;6.25;1.27;;;7.50;99.90;;;;;;25345999;23;20468;-53
